Time;durP1;ratioP1;P1;durP2;ratioP2;P2;SDS_P1;SDS_P2;PMS_P1;PMS_P2;Temp;Humidity;BMP_temperature;BMP_pressure;BME280_temperature;BME280_humidity;BME280_pressure;Samples;Min_cycle;Max_cycle;Signal;HPM_P1;HPM_P2
2024/01/21 00:01:13;;;;;;;5.10;2.80;;;-5.90;99.90;;;;;;5052553;28;20204;-80
2024/01/21 00:03:41;;;;;;;5.53;3.75;;;-6.00;99.90;;;;;;5056186;28;20631;-80
2024/01/21 00:06:08;;;;;;;5.50;5.03;;;-5.90;99.90;;;;;;5066190;28;20212;-82
2024/01/21 00:08:35;;;;;;;5.45;3.15;;;-6.00;99.90;;;;;;5057443;28;20214;-80
2024/01/21 00:11:01;;;;;;;6.95;3.65;;;-6.00;99.90;;;;;;5071879;28;20230;-80
2024/01/21 00:13:29;;;;;;;3.17;1.83;;;-5.90;99.90;;;;;;5071900;28;20233;-80
2024/01/21 00:15:56;;;;;;;3.90;3.35;;;-5.90;99.90;;;;;;5054889;28;20302;-80
2024/01/21 00:18:22;;;;;;;5.45;2.55;;;-6.00;99.90;;;;;;5076403;28;20196;-80
2024/01/21 00:20:51;;;;;;;2.45;2.28;;;-6.00;99.90;;;;;;5069348;28;20205;-80
2024/01/21 00:23:17;;;;;;;3.17;2.53;;;-6.00;99.90;;;;;;5058772;28;20224;-80
2024/01/21 00:25:44;;;;;;;6.65;2.60;;;-6.00;99.90;;;;;;5068865;28;20204;-81
2024/01/21 00:28:11;;;;;;;6.35;2.75;;;-6.00;99.90;;;;;;5078418;28;20212;-80
2024/01/21 00:30:38;;;;;;;2.40;2.20;;;-5.90;99.90;;;;;;5081021;28;20228;-80
2024/01/21 00:33:05;;;;;;;11.40;4.63;;;-5.90;99.90;;;;;;5074934;28;20284;-80
2024/01/21 00:35:31;;;;;;;2.53;2.33;;;-5.90;99.90;;;;;;5086144;28;20204;-80
2024/01/21 00:37:59;;;;;;;3.75;2.72;;;-5.90;99.90;;;;;;5072197;28;20216;-80
2024/01/21 00:40:26;;;;;;;3.50;2.90;;;-6.00;99.90;;;;;;5069830;28;20197;-79
2024/01/21 00:42:56;;;;;;;3.85;3.60;;;-6.00;99.90;;;;;;5083559;28;20341;-80
2024/01/21 00:45:22;;;;;;;5.88;2.58;;;-5.90;99.90;;;;;;5077855;28;20210;-80
2024/01/21 00:47:49;;;;;;;2.15;1.95;;;-5.90;99.90;;;;;;5084026;28;20205;-79
2024/01/21 00:50:16;;;;;;;4.25;2.85;;;-5.90;99.90;;;;;;5081056;28;20215;-80
2024/01/21 00:52:42;;;;;;;5.90;4.65;;;-5.90;99.90;;;;;;5055316;28;20213;-80
2024/01/21 00:55:10;;;;;;;2.20;2.05;;;-5.90;99.90;;;;;;5063837;28;20227;-80
2024/01/21 00:57:38;;;;;;;5.78;3.15;;;-5.90;99.90;;;;;;5078337;28;20211;-80
2024/01/21 01:00:06;;;;;;;7.50;3.58;;;-6.00;99.90;;;;;;5078068;28;20683;-80
2024/01/21 01:02:32;;;;;;;3.38;2.17;;;-6.00;99.90;;;;;;5081311;28;20239;-81
2024/01/21 01:04:59;;;;;;;4.47;4.10;;;-6.00;99.90;;;;;;5066468;28;20597;-81
2024/01/21 01:07:26;;;;;;;3.17;2.45;;;-6.00;99.90;;;;;;5054392;28;20216;-81
2024/01/21 01:09:52;;;;;;;4.35;2.88;;;-6.10;99.90;;;;;;5055027;28;20205;-81
2024/01/21 01:12:21;;;;;;;1.92;1.73;;;-6.10;99.90;;;;;;5077327;28;20293;-81
2024/01/21 01:14:48;;;;;;;9.52;5.60;;;-6.10;99.90;;;;;;5074972;28;20200;-82
2024/01/21 01:17:14;;;;;;;3.45;1.98;;;-6.10;99.90;;;;;;5074605;28;20215;-81
2024/01/21 01:19:41;;;;;;;3.47;2.28;;;-6.10;99.90;;;;;;5074558;28;20672;-81
2024/01/21 01:22:09;;;;;;;3.10;2.00;;;-6.10;99.90;;;;;;5074618;28;20229;-81
2024/01/21 01:24:36;;;;;;;1.95;1.75;;;-6.10;99.90;;;;;;5075950;28;20216;-81
2024/01/21 01:27:03;;;;;;;3.35;2.92;;;-6.10;99.90;;;;;;5078803;28;20227;-82
2024/01/21 01:29:31;;;;;;;5.22;3.05;;;-6.10;99.90;;;;;;5079718;28;20200;-82
2024/01/21 01:31:58;;;;;;;2.00;1.80;;;-6.10;99.90;;;;;;5078843;28;20702;-82
2024/01/21 01:34:24;;;;;;;1.80;1.70;;;-6.10;99.90;;;;;;5079017;28;20236;-82
2024/01/21 01:36:51;;;;;;;2.20;2.00;;;-6.10;99.90;;;;;;5079611;28;20594;-82
2024/01/21 01:39:18;;;;;;;2.78;2.22;;;-5.90;99.90;;;;;;5078682;28;20641;-82
2024/01/21 01:41:45;;;;;;;1.50;1.40;;;-5.80;99.90;;;;;;5084065;28;20240;-82
2024/01/21 01:44:11;;;;;;;2.40;2.20;;;-5.70;99.90;;;;;;5097908;28;20228;-81
2024/01/21 01:46:40;;;;;;;1.27;1.17;;;-5.60;99.90;;;;;;5077145;28;20201;-81
2024/01/21 01:49:06;;;;;;;1.63;1.30;;;-5.50;99.90;;;;;;5074621;28;20204;-81
2024/01/21 01:51:35;;;;;;;4.40;2.28;;;-5.50;99.90;;;;;;5076367;28;20211;-80
2024/01/21 01:54:03;;;;;;;2.03;1.92;;;-5.50;99.90;;;;;;5081582;28;20215;-80
2024/01/21 01:56:29;;;;;;;1.80;1.70;;;-5.50;99.90;;;;;;5076778;28;20212;-81
2024/01/21 01:59:01;;;;;;;3.97;2.53;;;-5.60;99.90;;;;;;5064736;28;20221;-81
2024/01/21 02:01:28;;;;;;;2.97;2.22;;;-5.60;99.90;;;;;;5063449;28;20299;-80
2024/01/21 02:03:57;;;;;;;2.33;2.13;;;-5.60;99.90;;;;;;5057990;28;20232;-81
2024/01/21 02:06:24;;;;;;;2.22;1.55;;;-5.60;99.90;;;;;;5057679;28;20296;-80
2024/01/21 02:08:50;;;;;;;3.60;2.08;;;-5.60;99.90;;;;;;5058529;28;20210;-80
2024/01/21 02:11:17;;;;;;;3.00;1.83;;;-5.70;99.90;;;;;;5076910;28;20207;-81
2024/01/21 02:13:44;;;;;;;2.13;1.92;;;-5.70;99.90;;;;;;5078518;28;20590;-80
2024/01/21 02:16:12;;;;;;;4.32;3.17;;;-5.80;99.90;;;;;;5082795;28;20237;-80
2024/01/21 02:18:41;;;;;;;2.55;1.83;;;-5.80;99.90;;;;;;5060687;28;20220;-80
2024/01/21 02:21:09;;;;;;;2.20;2.05;;;-5.80;99.90;;;;;;5060391;28;20205;-81
2024/01/21 02:23:37;;;;;;;2.13;1.90;;;-5.80;99.90;;;;;;5059118;28;20232;-81
2024/01/21 02:26:04;;;;;;;2.22;2.03;;;-5.90;99.90;;;;;;5076670;28;20208;-80
2024/01/21 02:28:31;;;;;;;2.90;2.42;;;-5.90;99.90;;;;;;5080067;28;20215;-81
2024/01/21 02:30:57;;;;;;;3.35;2.50;;;-5.90;99.90;;;;;;5063711;28;20205;-80
2024/01/21 02:33:24;;;;;;;7.07;3.45;;;-5.90;99.90;;;;;;5058284;28;20599;-81
2024/01/21 02:35:51;;;;;;;7.65;3.53;;;-5.90;99.90;;;;;;5059133;28;20209;-80
2024/01/21 02:38:18;;;;;;;1.92;1.83;;;-5.90;99.90;;;;;;5059066;28;20205;-81
2024/01/21 02:40:46;;;;;;;3.83;3.15;;;-6.00;99.90;;;;;;5058832;28;20201;-80
2024/01/21 02:43:13;;;;;;;2.85;2.53;;;-6.00;99.90;;;;;;5059681;28;20225;-80
2024/01/21 02:45:39;;;;;;;3.78;1.77;;;-6.00;99.90;;;;;;5078465;28;20211;-81
2024/01/21 02:48:07;;;;;;;1.40;1.30;;;-6.10;99.90;;;;;;5082123;28;20215;-80
2024/01/21 02:50:33;;;;;;;1.63;1.52;;;-6.10;99.90;;;;;;5079005;28;20211;-81
2024/01/21 02:53:00;;;;;;;1.85;1.73;;;-6.10;99.90;;;;;;5078328;28;20599;-80
2024/01/21 02:55:27;;;;;;;3.38;3.17;;;-6.00;99.90;;;;;;5078532;28;20592;-81
2024/01/21 02:57:55;;;;;;;2.17;1.70;;;-5.70;99.90;;;;;;5078641;28;20204;-81
2024/01/21 03:00:22;;;;;;;1.75;1.58;;;-5.50;99.90;;;;;;5078085;28;20618;-80
2024/01/21 03:02:49;;;;;;;4.20;1.90;;;-5.40;99.90;;;;;;5078606;28;20228;-81
2024/01/21 03:05:16;;;;;;;2.08;1.17;;;-5.30;99.90;;;;;;5059750;28;20236;-81
2024/01/21 03:07:43;;;;;;;6.65;3.20;;;-5.20;99.90;;;;;;5058621;28;20212;-81
2024/01/21 03:10:10;;;;;;;3.92;2.78;;;-5.00;99.90;;;;;;5058753;28;20205;-81
2024/01/21 03:12:37;;;;;;;1.65;1.48;;;-4.80;99.90;;;;;;5058346;28;20241;-80
2024/01/21 03:15:05;;;;;;;2.58;2.38;;;-4.70;99.90;;;;;;5058319;28;20201;-81
2024/01/21 03:17:32;;;;;;;3.38;2.95;;;-4.60;99.90;;;;;;5058058;28;20240;-81
2024/01/21 03:19:59;;;;;;;2.72;2.03;;;-4.60;99.90;;;;;;5058358;28;20285;-80
2024/01/21 03:22:26;;;;;;;2.47;2.30;;;-4.60;99.90;;;;;;5060071;28;20229;-81
2024/01/21 03:24:52;;;;;;;2.63;2.38;;;-4.50;99.90;;;;;;5058495;28;20257;-81
2024/01/21 03:27:19;;;;;;;2.60;2.40;;;-4.50;99.90;;;;;;5058235;28;20576;-81
2024/01/21 03:29:46;;;;;;;3.63;2.15;;;-4.50;99.90;;;;;;5057430;28;20252;-80
2024/01/21 03:32:14;;;;;;;1.80;1.52;;;-4.40;99.90;;;;;;5057030;28;20246;-81
2024/01/21 03:34:42;;;;;;;3.63;2.13;;;-4.40;99.90;;;;;;5072315;28;20207;-81
2024/01/21 03:37:09;;;;;;;2.60;2.22;;;-4.40;99.90;;;;;;5079038;28;20212;-80
2024/01/21 03:39:36;;;;;;;4.10;2.90;;;-4.40;99.90;;;;;;5073527;28;20204;-81
2024/01/21 03:42:02;;;;;;;3.70;2.20;;;-4.30;99.90;;;;;;5067592;28;20229;-80
2024/01/21 03:44:29;;;;;;;4.07;2.35;;;-4.30;99.90;;;;;;5054194;28;20244;-80
2024/01/21 03:46:56;;;;;;;3.00;2.75;;;-4.30;99.90;;;;;;5055222;28;20208;-80
2024/01/21 03:49:24;;;;;;;4.63;2.80;;;-4.40;99.90;;;;;;5054651;28;20213;-80
2024/01/21 03:51:51;;;;;;;3.10;2.80;;;-4.40;99.90;;;;;;5055874;28;20232;-80
2024/01/21 03:54:17;;;;;;;2.15;1.95;;;-4.40;99.90;;;;;;5055740;28;20206;-80
2024/01/21 03:56:45;;;;;;;3.72;2.28;;;-4.40;99.90;;;;;;5057716;28;20209;-81
2024/01/21 03:59:11;;;;;;;4.82;2.67;;;-4.40;99.90;;;;;;5057429;28;20213;-81
2024/01/21 04:01:43;;;;;;;2.78;2.10;;;-4.40;99.90;;;;;;5057699;28;20213;-80
2024/01/21 04:04:11;;;;;;;2.53;2.22;;;-4.40;99.90;;;;;;5057665;28;20227;-81
2024/01/21 04:06:40;;;;;;;3.58;2.70;;;-4.40;99.90;;;;;;5058222;28;20213;-81
2024/01/21 04:09:07;;;;;;;2.92;1.90;;;-4.40;99.90;;;;;;5058026;28;20205;-82
2024/01/21 04:11:34;;;;;;;1.88;1.65;;;-4.40;99.90;;;;;;5057773;28;20229;-80
2024/01/21 04:14:01;;;;;;;3.10;2.80;;;-4.50;99.90;;;;;;5058109;28;20205;-80
2024/01/21 04:16:28;;;;;;;1.95;1.63;;;-4.50;99.90;;;;;;5058157;28;20212;-80
2024/01/21 04:18:55;;;;;;;3.10;2.28;;;-4.50;99.90;;;;;;5057813;28;20213;-80
2024/01/21 04:21:21;;;;;;;1.85;1.42;;;-4.60;99.90;;;;;;5066703;28;20223;-80
2024/01/21 04:23:49;;;;;;;2.47;1.85;;;-4.60;99.90;;;;;;5063979;28;20306;-80
2024/01/21 04:26:16;;;;;;;5.05;3.83;;;-4.60;99.90;;;;;;5076852;28;20291;-80
2024/01/21 04:28:43;;;;;;;3.13;2.63;;;-4.60;99.90;;;;;;5078982;28;20744;-80
2024/01/21 04:31:10;;;;;;;1.90;1.75;;;-4.70;99.90;;;;;;5079086;28;20208;-80
2024/01/21 04:33:37;;;;;;;2.47;2.28;;;-4.70;99.90;;;;;;5077769;28;20231;-81
2024/01/21 04:36:04;;;;;;;2.33;2.13;;;-4.70;99.90;;;;;;5083241;28;20200;-80
2024/01/21 04:38:31;;;;;;;1.80;1.70;;;-4.70;99.90;;;;;;5093956;28;20192;-80
2024/01/21 04:40:59;;;;;;;2.63;2.42;;;-4.80;99.90;;;;;;5078815;28;20208;-80
2024/01/21 04:43:26;;;;;;;3.10;2.08;;;-4.80;99.90;;;;;;5082699;28;20223;-80
2024/01/21 04:45:53;;;;;;;7.03;3.65;;;-4.80;99.90;;;;;;5089972;28;20200;-80
2024/01/21 04:48:20;;;;;;;3.92;2.72;;;-4.90;99.90;;;;;;5089520;28;20192;-80
2024/01/21 04:50:46;;;;;;;4.05;2.55;;;-4.90;99.90;;;;;;5089676;28;20238;-80
2024/01/21 04:53:13;;;;;;;8.80;2.28;;;-5.00;99.90;;;;;;5089288;28;20300;-80
2024/01/21 04:55:40;;;;;;;2.95;2.75;;;-5.00;99.90;;;;;;5088320;28;20204;-80
2024/01/21 04:58:08;;;;;;;2.03;1.83;;;-5.10;99.90;;;;;;5088064;28;20220;-79
2024/01/21 05:00:36;;;;;;;4.03;3.72;;;-5.10;99.90;;;;;;5088054;28;20205;-80
2024/01/21 05:03:04;;;;;;;3.15;2.58;;;-5.10;99.90;;;;;;5087313;28;20220;-81
2024/01/21 05:05:31;;;;;;;1.48;1.33;;;-5.10;99.90;;;;;;5071283;28;20207;-81
2024/01/21 05:07:57;;;;;;;2.40;2.20;;;-5.10;99.90;;;;;;5080784;28;20204;-82
2024/01/21 05:10:25;;;;;;;2.83;1.90;;;-5.10;99.90;;;;;;5080399;28;20591;-81
2024/01/21 05:12:52;;;;;;;3.78;2.47;;;-5.10;99.90;;;;;;5080092;28;20247;-82
2024/01/21 05:15:20;;;;;;;2.20;1.67;;;-5.10;99.90;;;;;;5080029;28;20300;-81
2024/01/21 05:17:46;;;;;;;5.57;3.33;;;-5.10;99.90;;;;;;5075535;28;20200;-81
2024/01/21 05:20:13;;;;;;;1.48;1.23;;;-5.10;99.90;;;;;;5067545;28;20205;-81
2024/01/21 05:22:40;;;;;;;1.63;1.52;;;-5.10;99.90;;;;;;5079565;28;20224;-81
2024/01/21 05:25:07;;;;;;;2.00;1.80;;;-5.10;99.90;;;;;;5078845;28;20251;-81
2024/01/21 05:27:34;;;;;;;1.83;1.70;;;-5.10;99.90;;;;;;5077085;28;20665;-81
2024/01/21 05:30:01;;;;;;;7.63;3.78;;;-5.10;99.90;;;;;;5076482;28;20208;-81
2024/01/21 05:32:29;;;;;;;1.77;1.67;;;-5.00;99.90;;;;;;5049123;28;20232;-81
2024/01/21 05:34:55;;;;;;;4.03;1.75;;;-5.00;99.90;;;;;;5057950;28;20567;-81
2024/01/21 05:37:22;;;;;;;9.13;2.88;;;-4.80;99.90;;;;;;5058184;28;20686;-81
2024/01/21 05:39:49;;;;;;;2.28;1.85;;;-4.50;99.90;;;;;;5058005;28;20213;-81
2024/01/21 05:42:16;;;;;;;7.47;3.67;;;-4.60;99.90;;;;;;5058583;28;20225;-81
2024/01/21 05:44:42;;;;;;;7.28;1.75;;;-4.70;99.90;;;;;;5058399;28;20232;-81
2024/01/21 05:47:09;;;;;;;1.80;1.65;;;-4.80;99.90;;;;;;5067777;28;20208;-81
2024/01/21 05:49:37;;;;;;;3.17;2.97;;;-4.80;99.90;;;;;;5078684;28;20677;-81
2024/01/21 05:52:04;;;;;;;1.52;1.25;;;-4.80;99.90;;;;;;5078112;28;20220;-81
2024/01/21 05:54:31;;;;;;;2.85;2.10;;;-4.90;99.90;;;;;;5078012;28;20196;-81
2024/01/21 05:56:58;;;;;;;2.45;1.77;;;-4.90;99.90;;;;;;5078778;28;20208;-81
2024/01/21 05:59:25;;;;;;;5.65;3.00;;;-4.90;99.90;;;;;;5078282;28;20204;-81
2024/01/21 06:01:51;;;;;;;3.00;2.38;;;-5.00;99.90;;;;;;5079437;28;20228;-81
2024/01/21 06:04:18;;;;;;;5.13;1.80;;;-5.20;99.90;;;;;;5078839;28;20228;-82
2024/01/21 06:06:46;;;;;;;2.42;2.22;;;-5.30;99.90;;;;;;5078799;28;20204;-82
2024/01/21 06:09:13;;;;;;;3.47;2.47;;;-5.30;99.90;;;;;;5079582;28;20204;-81
2024/01/21 06:11:41;;;;;;;4.05;2.17;;;-5.40;99.90;;;;;;5078894;28;20296;-81
2024/01/21 06:14:08;;;;;;;1.55;1.48;;;-5.30;99.90;;;;;;5078681;28;20212;-81
2024/01/21 06:16:34;;;;;;;4.53;2.22;;;-5.30;99.90;;;;;;5071378;28;20210;-81
2024/01/21 06:19:01;;;;;;;2.17;1.98;;;-5.30;99.90;;;;;;5078978;28;20212;-81
2024/01/21 06:21:28;;;;;;;2.35;1.90;;;-5.30;99.90;;;;;;5079590;28;20208;-81
2024/01/21 06:23:56;;;;;;;1.60;1.50;;;-5.30;99.90;;;;;;5077981;28;20228;-81
2024/01/21 06:26:23;;;;;;;1.30;1.20;;;-5.30;99.90;;;;;;5074868;28;20303;-83
2024/01/21 06:28:50;;;;;;;2.80;2.60;;;-5.30;99.90;;;;;;5074739;28;20220;-84
2024/01/21 06:31:17;;;;;;;4.28;2.40;;;-5.40;99.90;;;;;;5075000;28;20200;-83
2024/01/21 06:33:43;;;;;;;8.00;2.83;;;-5.50;99.90;;;;;;5074269;28;20297;-82
2024/01/21 06:36:10;;;;;;;3.92;2.97;;;-5.50;99.90;;;;;;5074849;28;20200;-82
2024/01/21 06:38:38;;;;;;;1.60;1.50;;;-5.50;99.90;;;;;;5075139;28;20216;-83
2024/01/21 06:41:07;;;;;;;1.52;1.42;;;-5.50;99.90;;;;;;5074868;28;20212;-82
2024/01/21 06:43:33;;;;;;;2.20;2.00;;;-5.50;99.90;;;;;;5070653;28;20221;-82
2024/01/21 06:46:00;;;;;;;5.85;3.42;;;-5.50;99.90;;;;;;5070992;28;20224;-82
2024/01/21 06:48:27;;;;;;;3.50;1.92;;;-5.50;99.90;;;;;;5075374;28;20217;-82
2024/01/21 06:50:54;;;;;;;2.03;1.83;;;-5.60;99.90;;;;;;5074945;28;20208;-83
2024/01/21 06:53:21;;;;;;;1.83;1.73;;;-5.60;99.90;;;;;;5074841;28;20231;-83
2024/01/21 06:55:47;;;;;;;1.92;1.73;;;-5.60;99.90;;;;;;5061201;28;20573;-82
2024/01/21 06:58:16;;;;;;;2.25;2.15;;;-5.60;99.90;;;;;;5054306;28;20201;-82
2024/01/21 07:00:43;;;;;;;1.20;1.05;;;-5.50;99.90;;;;;;5055363;28;20208;-82
2024/01/21 07:03:09;;;;;;;3.78;2.88;;;-5.50;99.90;;;;;;5053970;28;20638;-82
2024/01/21 07:05:36;;;;;;;2.28;1.55;;;-5.60;99.90;;;;;;5053113;28;20270;-82
2024/01/21 07:08:03;;;;;;;2.50;1.65;;;-5.50;99.90;;;;;;5053399;28;20208;-83
2024/01/21 07:10:30;;;;;;;3.28;3.08;;;-5.50;99.90;;;;;;5053947;28;20209;-82
2024/01/21 07:12:56;;;;;;;2.53;2.35;;;-5.50;99.90;;;;;;5070542;28;20243;-82
2024/01/21 07:15:25;;;;;;;2.85;2.28;;;-5.50;99.90;;;;;;5073840;28;20287;-82
2024/01/21 07:17:52;;;;;;;1.63;1.20;;;-5.40;99.90;;;;;;5073564;28;20666;-82
2024/01/21 07:20:19;;;;;;;3.28;2.05;;;-5.40;99.90;;;;;;5073825;28;20208;-82
2024/01/21 07:22:46;;;;;;;1.70;1.60;;;-5.30;99.90;;;;;;5073860;28;20221;-82
2024/01/21 07:25:14;;;;;;;1.50;1.40;;;-5.30;99.90;;;;;;5074413;28;20224;-82
2024/01/21 07:27:42;;;;;;;7.47;2.15;;;-5.20;99.90;;;;;;5075431;28;20212;-81
2024/01/21 07:30:10;;;;;;;2.05;1.83;;;-5.10;99.90;;;;;;5075687;28;20575;-81
2024/01/21 07:32:39;;;;;;;1.63;1.52;;;-5.00;99.90;;;;;;5076048;28;20231;-82
2024/01/21 07:35:06;;;;;;;12.68;2.53;;;-5.00;99.90;;;;;;5075350;28;20311;-82
2024/01/21 07:37:33;;;;;;;1.73;1.63;;;-4.90;99.90;;;;;;5075112;28;20215;-83
2024/01/21 07:39:59;;;;;;;1.77;1.67;;;-4.80;99.90;;;;;;5075184;28;20212;-82
2024/01/21 07:42:26;;;;;;;2.35;1.92;;;-4.70;99.90;;;;;;5076731;28;20254;-82
2024/01/21 07:44:53;;;;;;;3.75;3.45;;;-4.70;99.90;;;;;;5075394;28;20228;-82
2024/01/21 07:47:20;;;;;;;3.25;2.95;;;-4.60;99.90;;;;;;5076331;28;20206;-81
2024/01/21 07:49:48;;;;;;;5.03;3.80;;;-4.50;99.90;;;;;;5073966;28;20465;-79
2024/01/21 07:52:16;;;;;;;2.85;2.35;;;-4.40;99.90;;;;;;5075421;28;20311;-79
2024/01/21 07:54:43;;;;;;;5.13;2.53;;;-4.20;99.90;;;;;;5075852;28;20208;-81
2024/01/21 07:57:10;;;;;;;2.60;2.42;;;-4.10;99.90;;;;;;5077379;28;20205;-82
2024/01/21 07:59:37;;;;;;;3.38;2.28;;;-3.90;99.90;;;;;;5076848;28;20578;-82
2024/01/21 08:02:04;;;;;;;4.72;2.67;;;-3.70;99.90;;;;;;5076346;28;20224;-82
2024/01/21 08:04:30;;;;;;;11.25;2.92;;;-3.40;99.90;;;;;;5057378;28;20217;-83
2024/01/21 08:06:58;;;;;;;5.65;3.80;;;-3.20;99.90;;;;;;5057715;28;20201;-83
2024/01/21 08:09:25;;;;;;;4.80;2.97;;;-2.90;99.90;;;;;;5058139;28;20212;-83
2024/01/21 08:11:52;;;;;;;4.50;2.45;;;-2.70;99.90;;;;;;5058232;28;20240;-82
2024/01/21 08:14:19;;;;;;;4.88;3.03;;;-2.50;99.90;;;;;;5057760;28;20201;-83
2024/01/21 08:16:45;;;;;;;6.10;2.88;;;-2.30;99.90;;;;;;5059351;28;20205;-81
2024/01/21 08:19:12;;;;;;;3.45;3.08;;;-2.00;99.90;;;;;;5057711;28;20216;-80
2024/01/21 08:21:39;;;;;;;5.28;2.65;;;-1.90;99.90;;;;;;5057525;28;20205;-81
2024/01/21 08:24:07;;;;;;;5.10;4.30;;;-1.80;99.90;;;;;;5057656;28;20961;-80
2024/01/21 08:26:34;;;;;;;4.35;2.88;;;-1.80;99.90;;;;;;5055706;28;20206;-81
2024/01/21 08:29:01;;;;;;;3.53;3.22;;;-1.70;99.90;;;;;;5053022;28;20573;-82
2024/01/21 08:31:27;;;;;;;4.53;3.13;;;-1.70;99.90;;;;;;5058931;28;20203;-82
2024/01/21 08:33:54;;;;;;;3.95;3.55;;;-1.70;99.90;;;;;;5056262;28;20201;-80
2024/01/21 08:36:21;;;;;;;3.17;2.47;;;-1.60;99.90;;;;;;5084213;28;20197;-81
2024/01/21 08:38:47;;;;;;;6.53;3.35;;;-1.60;99.90;;;;;;5086401;28;20212;-80
2024/01/21 08:41:15;;;;;;;4.07;2.72;;;-1.60;99.90;;;;;;5087765;28;20684;-80
2024/01/21 08:43:42;;;;;;;2.15;2.05;;;-1.60;99.90;;;;;;5079432;28;20221;-78
2024/01/21 08:46:12;;;;;;;2.53;2.30;;;-1.50;99.90;;;;;;5077797;28;20231;-79
2024/01/21 08:48:38;;;;;;;3.85;3.13;;;-1.40;99.90;;;;;;5061255;28;20204;-79
2024/01/21 08:51:05;;;;;;;5.55;3.17;;;-1.30;99.90;;;;;;5057640;28;20209;-79
2024/01/21 08:53:32;;;;;;;2.55;2.35;;;-1.20;99.90;;;;;;5055894;28;20227;-77
2024/01/21 08:55:59;;;;;;;3.88;2.90;;;-1.20;99.90;;;;;;5055513;28;20205;-78
2024/01/21 08:58:28;;;;;;;4.07;2.50;;;-1.20;99.90;;;;;;5055867;28;20736;-77
2024/01/21 09:00:55;;;;;;;3.40;2.33;;;-1.20;99.90;;;;;;5056143;28;20239;-78
2024/01/21 09:03:22;;;;;;;3.67;2.40;;;-1.10;99.90;;;;;;5057176;28;20225;-78
2024/01/21 09:05:49;;;;;;;4.60;2.58;;;-1.10;99.90;;;;;;5058784;28;20246;-80
2024/01/21 09:08:17;;;;;;;3.58;2.47;;;-1.00;99.90;;;;;;5075621;28;20692;-80
2024/01/21 09:10:44;;;;;;;4.00;2.20;;;-1.00;99.90;;;;;;5077272;28;20728;-80
2024/01/21 09:13:13;;;;;;;2.78;2.05;;;-0.90;99.90;;;;;;5066068;28;20613;-81
2024/01/21 09:15:42;;;;;;;3.80;3.03;;;-0.90;99.90;;;;;;5062690;28;20205;-79
2024/01/21 09:18:09;;;;;;;2.75;2.33;;;-0.90;99.90;;;;;;5062629;28;20228;-79
2024/01/21 09:20:36;;;;;;;3.55;2.40;;;-0.80;99.90;;;;;;5069428;28;20205;-79
2024/01/21 09:23:03;;;;;;;3.65;3.00;;;-0.80;99.90;;;;;;5064060;28;20863;-80
2024/01/21 09:25:30;;;;;;;3.50;3.20;;;-0.80;99.90;;;;;;5068903;28;20312;-78
2024/01/21 09:27:56;;;;;;;3.50;3.20;;;-0.70;99.90;;;;;;5060905;28;20208;-79
2024/01/21 09:30:23;;;;;;;4.68;3.08;;;-0.70;99.90;;;;;;5059637;28;20220;-80
2024/01/21 09:32:52;;;;;;;2.92;2.30;;;-0.70;99.90;;;;;;5057068;28;20578;-79
2024/01/21 09:35:18;;;;;;;9.90;3.67;;;-0.70;99.90;;;;;;5058664;28;20223;-79
2024/01/21 09:37:46;;;;;;;3.33;3.00;;;-0.70;99.90;;;;;;5066012;28;20208;-79
2024/01/21 09:40:13;;;;;;;6.07;3.60;;;-0.70;99.90;;;;;;5068393;28;20206;-79
2024/01/21 09:42:40;;;;;;;5.18;3.08;;;-0.70;99.90;;;;;;5076472;28;20256;-79
2024/01/21 09:45:30;;;;;;;4.75;2.88;;;-0.60;99.90;;;;;;5066127;28;20568;-79
2024/01/21 09:47:58;;;;;;;5.15;3.33;;;-0.50;99.90;;;;;;5052558;28;20219;-78
2024/01/21 09:50:26;;;;;;;5.22;3.00;;;-0.30;99.90;;;;;;5053657;28;20205;-79
2024/01/21 09:52:53;;;;;;;6.05;3.30;;;-0.10;99.90;;;;;;5071408;28;20216;-79
2024/01/21 09:55:21;;;;;;;6.60;4.28;;;0.00;99.90;;;;;;5068987;28;20204;-79
2024/01/21 09:57:48;;;;;;;4.65;2.65;;;0.10;99.90;;;;;;5056582;28;20207;-79
2024/01/21 10:00:15;;;;;;;5.03;3.63;;;0.30;99.90;;;;;;5053450;28;20207;-79
2024/01/21 10:02:43;;;;;;;4.75;3.28;;;0.50;99.90;;;;;;5056368;28;20236;-79
2024/01/21 10:05:11;;;;;;;6.55;3.75;;;0.80;99.90;;;;;;5056395;28;20220;-79
2024/01/21 10:07:40;;;;;;;3.40;2.95;;;1.10;99.90;;;;;;5076637;28;20204;-79
2024/01/21 10:10:07;;;;;;;3.85;2.97;;;1.50;99.90;;;;;;5072138;28;20205;-79
2024/01/21 10:12:34;;;;;;;5.72;4.47;;;2.10;99.90;;;;;;5062519;28;20232;-79
2024/01/21 10:15:01;;;;;;;6.38;3.85;;;2.80;99.90;;;;;;5053404;28;20242;-80
2024/01/21 10:17:29;;;;;;;3.42;2.90;;;3.70;99.90;;;;;;5046873;28;20205;-76
2024/01/21 10:19:58;;;;;;;6.32;4.43;;;4.40;99.90;;;;;;5052341;28;20667;-79
2024/01/21 10:22:27;;;;;;;3.80;3.42;;;4.70;99.90;;;;;;5053032;28;20217;-78
2024/01/21 10:24:55;;;;;;;4.65;3.92;;;4.70;99.90;;;;;;5055354;28;20205;-77
2024/01/21 10:27:22;;;;;;;4.90;3.80;;;4.60;99.90;;;;;;5053642;28;20592;-78
2024/01/21 10:29:49;;;;;;;8.82;3.95;;;4.50;99.90;;;;;;5054668;28;20286;-78
2024/01/21 10:32:17;;;;;;;3.50;3.20;;;4.30;99.90;;;;;;5063081;28;20236;-78
2024/01/21 10:34:46;;;;;;;7.47;4.72;;;4.50;99.90;;;;;;5075297;28;20208;-78
2024/01/21 10:37:15;;;;;;;4.47;3.50;;;5.20;99.90;;;;;;5073467;28;20204;-78
2024/01/21 10:39:45;;;;;;;5.50;4.28;;;6.00;99.90;;;;;;5076192;28;20579;-78
2024/01/21 10:42:13;;;;;;;6.60;3.97;;;6.60;99.90;;;;;;5075342;28;20221;-79
2024/01/21 10:44:41;;;;;;;5.22;3.78;;;5.70;99.90;;;;;;5075131;28;20234;-79
2024/01/21 10:47:09;;;;;;;11.35;3.55;;;4.90;99.90;;;;;;5074572;28;20220;-79
2024/01/21 10:49:36;;;;;;;5.20;3.30;;;4.80;99.90;;;;;;5075483;28;20294;-79
2024/01/21 10:52:03;;;;;;;7.50;3.47;;;4.70;99.90;;;;;;5067586;28;20224;-79
2024/01/21 10:54:30;;;;;;;5.60;4.50;;;4.40;99.90;;;;;;5075554;28;20677;-78
2024/01/21 10:56:58;;;;;;;5.40;3.58;;;4.30;99.90;;;;;;5059973;28;20196;-79
2024/01/21 10:59:25;;;;;;;4.57;4.10;;;4.40;99.90;;;;;;5075215;28;20563;-80
2024/01/21 11:01:52;;;;;;;6.00;4.07;;;4.50;99.90;;;;;;5060885;28;20252;-78
2024/01/21 11:04:23;;;;;;;7.40;3.47;;;5.00;99.90;;;;;;5074818;28;20215;-78
2024/01/21 11:06:51;;;;;;;11.93;4.50;;;5.40;99.90;;;;;;5050556;28;20225;-78
2024/01/21 11:09:22;;;;;;;5.38;3.47;;;5.60;99.90;;;;;;5056258;28;20255;-79
2024/01/21 11:11:50;;;;;;;4.60;3.65;;;5.70;99.90;;;;;;5049065;28;20228;-79
2024/01/21 11:14:32;;;;;;;4.57;3.75;;;5.60;99.90;;;;;;5054639;28;20217;-78
2024/01/21 11:17:00;;;;;;;4.78;3.80;;;5.60;99.90;;;;;;5048275;28;20201;-76
2024/01/21 11:19:31;;;;;;;6.10;3.70;;;5.40;99.90;;;;;;5054625;28;20209;-76
2024/01/21 11:21:59;;;;;;;4.45;4.05;;;5.30;99.90;;;;;;5047894;28;20217;-77
2024/01/21 11:24:30;;;;;;;6.65;4.32;;;5.20;99.90;;;;;;5054900;28;20202;-79
2024/01/21 11:26:57;;;;;;;4.18;3.85;;;4.90;99.90;;;;;;5048156;28;20682;-79
2024/01/21 11:29:26;;;;;;;7.22;4.20;;;4.70;99.90;;;;;;5054504;28;20923;-79
2024/01/21 11:31:57;;;;;;;3.60;3.25;;;4.40;99.90;;;;;;5046960;28;20225;-77
2024/01/21 11:34:25;;;;;;;8.60;3.65;;;4.30;99.90;;;;;;5053437;28;20228;-77
2024/01/21 11:36:53;;;;;;;6.05;3.58;;;4.20;99.90;;;;;;5048579;28;20250;-77
2024/01/21 11:39:24;;;;;;;5.50;3.58;;;4.00;99.90;;;;;;5054875;28;20642;-78
2024/01/21 11:41:51;;;;;;;4.15;3.70;;;4.00;99.90;;;;;;5049103;28;20221;-78
2024/01/21 11:44:23;;;;;;;4.82;3.35;;;4.10;99.90;;;;;;5053444;28;20205;-79
2024/01/21 11:46:50;;;;;;;4.50;3.50;;;4.10;99.90;;;;;;5049948;28;20221;-78
2024/01/21 11:49:18;;;;;;;6.85;3.50;;;4.10;99.90;;;;;;5053548;28;20205;-78
2024/01/21 11:51:45;;;;;;;4.05;3.40;;;4.20;99.90;;;;;;5049306;28;20238;-78
2024/01/21 11:54:13;;;;;;;3.25;2.50;;;4.30;99.90;;;;;;5054343;28;20201;-79
2024/01/21 11:56:40;;;;;;;5.18;2.70;;;4.30;99.90;;;;;;5048226;28;20199;-78
2024/01/21 11:59:07;;;;;;;4.53;2.33;;;4.40;99.90;;;;;;5053818;28;20201;-78
2024/01/21 12:01:35;;;;;;;3.25;2.95;;;4.40;99.90;;;;;;5054843;28;20224;-78
2024/01/21 12:04:02;;;;;;;3.28;2.35;;;4.60;99.90;;;;;;5054358;28;20205;-76
2024/01/21 12:06:33;;;;;;;2.95;2.65;;;4.80;99.90;;;;;;5065211;28;20224;-76
2024/01/21 12:09:01;;;;;;;4.13;2.95;;;4.80;99.90;;;;;;5073391;28;20208;-78
2024/01/21 12:11:27;;;;;;;2.90;2.25;;;5.10;99.90;;;;;;5073209;28;20320;-77
2024/01/21 12:13:54;;;;;;;2.38;2.15;;;5.30;99.90;;;;;;5064701;28;20204;-77
2024/01/21 12:16:21;;;;;;;3.25;2.28;;;5.60;99.90;;;;;;5073842;28;20200;-77
2024/01/21 12:18:48;;;;;;;4.75;2.95;;;6.20;99.90;;;;;;5073614;28;20207;-77
2024/01/21 12:21:16;;;;;;;2.85;2.38;;;6.50;99.90;;;;;;5074396;28;20235;-78
2024/01/21 12:23:45;;;;;;;3.60;3.30;;;7.10;99.70;;;;;;5073415;28;20228;-77
2024/01/21 12:26:16;;;;;;;5.00;3.38;;;7.20;99.00;;;;;;5073968;28;20311;-76
2024/01/21 12:28:55;;;;;;;3.78;3.38;;;7.30;98.60;;;;;;5073362;28;20240;-77
2024/01/21 12:31:22;;;;;;;4.25;2.58;;;7.20;98.30;;;;;;5073347;28;20208;-77
2024/01/21 12:33:49;;;;;;;5.63;3.40;;;7.10;98.40;;;;;;5064558;28;20447;-80
2024/01/21 12:36:19;;;;;;;3.90;3.40;;;7.10;98.90;;;;;;5056333;28;20675;-79
2024/01/21 12:38:48;;;;;;;3.40;3.08;;;7.30;99.10;;;;;;5056977;28;20201;-79
2024/01/21 12:41:15;;;;;;;3.97;3.40;;;7.30;98.80;;;;;;5055293;28;20205;-79
2024/01/21 12:43:42;;;;;;;3.72;3.10;;;7.50;98.90;;;;;;5055662;28;20229;-79
2024/01/21 12:46:10;;;;;;;4.93;3.67;;;7.60;99.00;;;;;;5054388;28;20214;-79
2024/01/21 12:48:36;;;;;;;3.45;3.15;;;7.70;98.90;;;;;;5062916;28;20212;-79